sensor_id;sensor_type;location;lat;lon;timestamp;temperature;humidity
70706;DHT22;59320;52.316;10.870;2023-06-04T00:00:07;14.10;51.90
70706;DHT22;59320;52.316;10.870;2023-06-04T00:02:35;14.10;51.80
70706;DHT22;59320;52.316;10.870;2023-06-04T00:05:02;14.00;52.20
70706;DHT22;59320;52.316;10.870;2023-06-04T00:07:29;14.00;51.90
70706;DHT22;59320;52.316;10.870;2023-06-04T00:09:58;14.00;51.20
70706;DHT22;59320;52.316;10.870;2023-06-04T00:12:25;14.00;51.10
70706;DHT22;59320;52.316;10.870;2023-06-04T00:14:52;13.90;51.30
70706;DHT22;59320;52.316;10.870;2023-06-04T00:17:19;13.90;51.60
70706;DHT22;59320;52.316;10.870;2023-06-04T00:19:46;13.80;51.60
70706;DHT22;59320;52.316;10.870;2023-06-04T00:22:13;13.80;51.80
70706;DHT22;59320;52.316;10.870;2023-06-04T00:24:40;13.60;52.70
70706;DHT22;59320;52.316;10.870;2023-06-04T00:27:09;13.50;52.80
70706;DHT22;59320;52.316;10.870;2023-06-04T00:29:36;13.50;52.70
70706;DHT22;59320;52.316;10.870;2023-06-04T00:32:03;13.60;52.60
70706;DHT22;59320;52.316;10.870;2023-06-04T00:34:31;13.70;52.80
70706;DHT22;59320;52.316;10.870;2023-06-04T00:36:58;13.70;52.90
70706;DHT22;59320;52.316;10.870;2023-06-04T00:39:27;13.70;53.10
70706;DHT22;59320;52.316;10.870;2023-06-04T00:41:55;13.70;53.10
70706;DHT22;59320;52.316;10.870;2023-06-04T00:44:23;13.60;53.30
70706;DHT22;59320;52.316;10.870;2023-06-04T00:46:51;13.60;54.10
70706;DHT22;59320;52.316;10.870;2023-06-04T00:49:19;13.50;54.60
70706;DHT22;59320;52.316;10.870;2023-06-04T00:51:46;13.40;54.50
70706;DHT22;59320;52.316;10.870;2023-06-04T00:54:14;13.50;54.60
70706;DHT22;59320;52.316;10.870;2023-06-04T00:56:43;13.40;54.80
70706;DHT22;59320;52.316;10.870;2023-06-04T00:59:11;13.30;54.90
70706;DHT22;59320;52.316;10.870;2023-06-04T01:01:46;13.30;54.70
70706;DHT22;59320;52.316;10.870;2023-06-04T01:04:23;13.30;54.90
70706;DHT22;59320;52.316;10.870;2023-06-04T01:06:53;13.20;54.50
70706;DHT22;59320;52.316;10.870;2023-06-04T01:09:24;13.20;54.30
70706;DHT22;59320;52.316;10.870;2023-06-04T01:11:52;13.20;54.40
70706;DHT22;59320;52.316;10.870;2023-06-04T01:14:19;13.20;54.50
70706;DHT22;59320;52.316;10.870;2023-06-04T01:16:50;13.20;54.50
70706;DHT22;59320;52.316;10.870;2023-06-04T01:19:49;13.20;54.90
70706;DHT22;59320;52.316;10.870;2023-06-04T01:22:32;13.10;54.90
70706;DHT22;59320;52.316;10.870;2023-06-04T01:25:04;13.10;54.90
70706;DHT22;59320;52.316;10.870;2023-06-04T01:27:31;13.10;54.90
70706;DHT22;59320;52.316;10.870;2023-06-04T01:30:01;13.10;55.10
70706;DHT22;59320;52.316;10.870;2023-06-04T01:32:31;13.10;54.90
70706;DHT22;59320;52.316;10.870;2023-06-04T01:34:59;13.00;55.10
70706;DHT22;59320;52.316;10.870;2023-06-04T01:37:26;13.00;55.20
70706;DHT22;59320;52.316;10.870;2023-06-04T01:39:53;12.90;55.20
70706;DHT22;59320;52.316;10.870;2023-06-04T01:42:20;12.90;55.50
70706;DHT22;59320;52.316;10.870;2023-06-04T01:44:47;12.90;55.80
70706;DHT22;59320;52.316;10.870;2023-06-04T01:47:14;12.80;56.00
70706;DHT22;59320;52.316;10.870;2023-06-04T01:49:42;12.70;56.10
70706;DHT22;59320;52.316;10.870;2023-06-04T01:52:10;12.70;56.30
70706;DHT22;59320;52.316;10.870;2023-06-04T01:54:37;12.70;56.50
70706;DHT22;59320;52.316;10.870;2023-06-04T01:57:06;12.70;56.60
70706;DHT22;59320;52.316;10.870;2023-06-04T01:59:35;12.60;56.60
70706;DHT22;59320;52.316;10.870;2023-06-04T02:02:02;12.60;56.60
70706;DHT22;59320;52.316;10.870;2023-06-04T02:04:29;12.50;56.50
70706;DHT22;59320;52.316;10.870;2023-06-04T02:06:58;12.50;56.50
70706;DHT22;59320;52.316;10.870;2023-06-04T02:09:26;12.50;56.60
70706;DHT22;59320;52.316;10.870;2023-06-04T02:11:53;12.50;56.90
70706;DHT22;59320;52.316;10.870;2023-06-04T02:14:20;12.40;58.10
70706;DHT22;59320;52.316;10.870;2023-06-04T02:16:47;12.30;59.10
70706;DHT22;59320;52.316;10.870;2023-06-04T02:19:15;12.30;59.30
70706;DHT22;59320;52.316;10.870;2023-06-04T02:21:44;12.20;59.70
70706;DHT22;59320;52.316;10.870;2023-06-04T02:24:12;12.10;59.80
70706;DHT22;59320;52.316;10.870;2023-06-04T02:26:41;12.00;60.20
70706;DHT22;59320;52.316;10.870;2023-06-04T02:29:08;12.00;60.20
70706;DHT22;59320;52.316;10.870;2023-06-04T02:31:35;12.00;60.50
70706;DHT22;59320;52.316;10.870;2023-06-04T02:34:03;11.90;60.80
70706;DHT22;59320;52.316;10.870;2023-06-04T02:36:30;11.80;61.30
70706;DHT22;59320;52.316;10.870;2023-06-04T02:38:57;11.80;61.60
70706;DHT22;59320;52.316;10.870;2023-06-04T02:41:25;11.60;62.30
70706;DHT22;59320;52.316;10.870;2023-06-04T02:43:52;11.60;62.10
70706;DHT22;59320;52.316;10.870;2023-06-04T02:46:19;11.60;62.00
70706;DHT22;59320;52.316;10.870;2023-06-04T02:48:46;11.60;62.00
70706;DHT22;59320;52.316;10.870;2023-06-04T02:51:13;11.50;62.30
70706;DHT22;59320;52.316;10.870;2023-06-04T02:53:40;11.40;62.40
70706;DHT22;59320;52.316;10.870;2023-06-04T02:56:07;11.40;63.00
70706;DHT22;59320;52.316;10.870;2023-06-04T02:58:36;11.30;64.40
70706;DHT22;59320;52.316;10.870;2023-06-04T03:01:04;11.20;65.10
70706;DHT22;59320;52.316;10.870;2023-06-04T03:03:32;11.10;65.10
70706;DHT22;59320;52.316;10.870;2023-06-04T03:05:59;11.10;65.20
70706;DHT22;59320;52.316;10.870;2023-06-04T03:08:28;11.00;64.90
70706;DHT22;59320;52.316;10.870;2023-06-04T03:10:55;11.10;65.00
70706;DHT22;59320;52.316;10.870;2023-06-04T03:13:22;11.00;64.90
70706;DHT22;59320;52.316;10.870;2023-06-04T03:15:50;11.00;64.90
70706;DHT22;59320;52.316;10.870;2023-06-04T03:18:21;11.00;64.70
70706;DHT22;59320;52.316;10.870;2023-06-04T03:20:48;11.10;64.80
70706;DHT22;59320;52.316;10.870;2023-06-04T03:23:15;11.10;64.80
70706;DHT22;59320;52.316;10.870;2023-06-04T03:25:42;11.00;65.00
70706;DHT22;59320;52.316;10.870;2023-06-04T03:28:10;11.00;64.90
70706;DHT22;59320;52.316;10.870;2023-06-04T03:30:37;11.00;66.10
70706;DHT22;59320;52.316;10.870;2023-06-04T03:33:08;10.90;65.60
70706;DHT22;59320;52.316;10.870;2023-06-04T03:35:35;11.00;65.60
70706;DHT22;59320;52.316;10.870;2023-06-04T03:38:02;11.00;65.40
70706;DHT22;59320;52.316;10.870;2023-06-04T03:40:31;11.10;65.10
70706;DHT22;59320;52.316;10.870;2023-06-04T03:42:58;11.10;65.30
70706;DHT22;59320;52.316;10.870;2023-06-04T03:45:29;11.10;65.20
70706;DHT22;59320;52.316;10.870;2023-06-04T03:47:56;11.10;65.40
70706;DHT22;59320;52.316;10.870;2023-06-04T03:50:25;11.20;65.60
70706;DHT22;59320;52.316;10.870;2023-06-04T03:52:53;11.20;65.60
70706;DHT22;59320;52.316;10.870;2023-06-04T03:55:20;11.20;65.50
70706;DHT22;59320;52.316;10.870;2023-06-04T03:57:49;11.20;65.40
70706;DHT22;59320;52.316;10.870;2023-06-04T04:00:17;11.30;65.30
70706;DHT22;59320;52.316;10.870;2023-06-04T04:02:49;11.30;65.40
70706;DHT22;59320;52.316;10.870;2023-06-04T04:05:28;11.40;66.00
70706;DHT22;59320;52.316;10.870;2023-06-04T04:07:55;11.50;65.10
70706;DHT22;59320;52.316;10.870;2023-06-04T04:10:25;11.50;65.30
70706;DHT22;59320;52.316;10.870;2023-06-04T04:12:52;11.50;65.40
70706;DHT22;59320;52.316;10.870;2023-06-04T04:15:21;11.50;65.50
70706;DHT22;59320;52.316;10.870;2023-06-04T04:17:49;11.60;66.00
70706;DHT22;59320;52.316;10.870;2023-06-04T04:20:16;11.50;65.70
70706;DHT22;59320;52.316;10.870;2023-06-04T04:22:50;11.60;66.10
70706;DHT22;59320;52.316;10.870;2023-06-04T04:25:19;11.60;66.50
70706;DHT22;59320;52.316;10.870;2023-06-04T04:27:46;11.70;66.40
70706;DHT22;59320;52.316;10.870;2023-06-04T04:30:14;11.70;66.30
70706;DHT22;59320;52.316;10.870;2023-06-04T04:32:44;11.70;66.20
70706;DHT22;59320;52.316;10.870;2023-06-04T04:35:17;11.80;66.10
70706;DHT22;59320;52.316;10.870;2023-06-04T04:37:45;11.80;66.30
70706;DHT22;59320;52.316;10.870;2023-06-04T04:40:16;11.90;66.30
70706;DHT22;59320;52.316;10.870;2023-06-04T04:42:47;11.90;66.70
70706;DHT22;59320;52.316;10.870;2023-06-04T04:45:15;12.00;66.00
70706;DHT22;59320;52.316;10.870;2023-06-04T04:47:44;11.90;65.90
70706;DHT22;59320;52.316;10.870;2023-06-04T04:50:11;11.90;65.80
70706;DHT22;59320;52.316;10.870;2023-06-04T04:52:38;12.00;65.80
70706;DHT22;59320;52.316;10.870;2023-06-04T04:55:07;12.00;65.80
70706;DHT22;59320;52.316;10.870;2023-06-04T04:57:36;12.10;66.00
70706;DHT22;59320;52.316;10.870;2023-06-04T05:00:05;12.10;66.40
70706;DHT22;59320;52.316;10.870;2023-06-04T05:02:34;12.10;66.60
70706;DHT22;59320;52.316;10.870;2023-06-04T05:05:03;12.20;66.80
70706;DHT22;59320;52.316;10.870;2023-06-04T05:07:30;12.30;67.00
70706;DHT22;59320;52.316;10.870;2023-06-04T05:09:57;12.40;66.80
70706;DHT22;59320;52.316;10.870;2023-06-04T05:12:30;12.50;66.80
70706;DHT22;59320;52.316;10.870;2023-06-04T05:14:59;12.50;67.60
70706;DHT22;59320;52.316;10.870;2023-06-04T05:17:26;12.60;66.60
70706;DHT22;59320;52.316;10.870;2023-06-04T05:19:58;12.70;66.50
70706;DHT22;59320;52.316;10.870;2023-06-04T05:22:38;12.80;66.60
70706;DHT22;59320;52.316;10.870;2023-06-04T05:25:07;12.90;66.40
70706;DHT22;59320;52.316;10.870;2023-06-04T05:27:35;13.00;66.60
70706;DHT22;59320;52.316;10.870;2023-06-04T05:30:04;13.10;66.50
70706;DHT22;59320;52.316;10.870;2023-06-04T05:32:32;13.20;66.40
70706;DHT22;59320;52.316;10.870;2023-06-04T05:35:00;13.30;66.30
70706;DHT22;59320;52.316;10.870;2023-06-04T05:37:31;13.40;66.10
70706;DHT22;59320;52.316;10.870;2023-06-04T05:40:00;13.50;66.10
70706;DHT22;59320;52.316;10.870;2023-06-04T05:42:29;13.60;66.70
70706;DHT22;59320;52.316;10.870;2023-06-04T05:44:56;13.70;65.90
70706;DHT22;59320;52.316;10.870;2023-06-04T05:47:24;13.80;65.60
70706;DHT22;59320;52.316;10.870;2023-06-04T05:49:52;13.90;65.10
70706;DHT22;59320;52.316;10.870;2023-06-04T05:52:19;14.00;64.50
70706;DHT22;59320;52.316;10.870;2023-06-04T05:54:47;14.10;62.90
70706;DHT22;59320;52.316;10.870;2023-06-04T05:57:14;14.10;61.90
70706;DHT22;59320;52.316;10.870;2023-06-04T05:59:41;14.30;61.80
70706;DHT22;59320;52.316;10.870;2023-06-04T06:02:12;14.40;61.60
70706;DHT22;59320;52.316;10.870;2023-06-04T06:04:42;14.50;61.60
70706;DHT22;59320;52.316;10.870;2023-06-04T06:07:10;14.60;61.30
70706;DHT22;59320;52.316;10.870;2023-06-04T06:09:37;14.70;61.00
70706;DHT22;59320;52.316;10.870;2023-06-04T06:12:05;14.80;61.00
70706;DHT22;59320;52.316;10.870;2023-06-04T06:14:33;15.00;61.80
70706;DHT22;59320;52.316;10.870;2023-06-04T06:17:03;15.10;63.20
70706;DHT22;59320;52.316;10.870;2023-06-04T06:19:31;15.30;62.20
70706;DHT22;59320;52.316;10.870;2023-06-04T06:22:00;15.60;61.80
70706;DHT22;59320;52.316;10.870;2023-06-04T06:24:29;15.90;61.70
70706;DHT22;59320;52.316;10.870;2023-06-04T06:27:06;16.30;60.80
70706;DHT22;59320;52.316;10.870;2023-06-04T06:29:37;16.70;59.90
70706;DHT22;59320;52.316;10.870;2023-06-04T06:32:05;16.90;58.90
70706;DHT22;59320;52.316;10.870;2023-06-04T06:34:32;17.10;58.60
70706;DHT22;59320;52.316;10.870;2023-06-04T06:37:00;17.50;58.50
70706;DHT22;59320;52.316;10.870;2023-06-04T06:39:31;17.70;57.90
70706;DHT22;59320;52.316;10.870;2023-06-04T06:42:04;17.90;58.00
70706;DHT22;59320;52.316;10.870;2023-06-04T06:44:37;18.10;57.50
70706;DHT22;59320;52.316;10.870;2023-06-04T06:47:04;18.30;57.40
70706;DHT22;59320;52.316;10.870;2023-06-04T06:49:32;18.40;57.10
70706;DHT22;59320;52.316;10.870;2023-06-04T06:52:00;18.60;56.80
70706;DHT22;59320;52.316;10.870;2023-06-04T06:54:27;18.70;56.70
70706;DHT22;59320;52.316;10.870;2023-06-04T06:56:54;18.90;56.20
70706;DHT22;59320;52.316;10.870;2023-06-04T06:59:21;19.00;55.30
70706;DHT22;59320;52.316;10.870;2023-06-04T07:01:48;19.00;55.20
70706;DHT22;59320;52.316;10.870;2023-06-04T07:04:15;19.20;54.80
70706;DHT22;59320;52.316;10.870;2023-06-04T07:06:46;19.20;54.00
70706;DHT22;59320;52.316;10.870;2023-06-04T07:09:14;19.30;53.80
70706;DHT22;59320;52.316;10.870;2023-06-04T07:11:41;19.50;52.30
70706;DHT22;59320;52.316;10.870;2023-06-04T07:14:08;19.60;52.40
70706;DHT22;59320;52.316;10.870;2023-06-04T07:16:35;19.70;51.10
70706;DHT22;59320;52.316;10.870;2023-06-04T07:19:02;20.00;50.70
70706;DHT22;59320;52.316;10.870;2023-06-04T07:21:29;20.10;50.60
70706;DHT22;59320;52.316;10.870;2023-06-04T07:23:56;20.10;49.50
70706;DHT22;59320;52.316;10.870;2023-06-04T07:26:25;20.00;48.30
70706;DHT22;59320;52.316;10.870;2023-06-04T07:28:56;20.00;49.70
70706;DHT22;59320;52.316;10.870;2023-06-04T07:31:23;20.40;49.70
70706;DHT22;59320;52.316;10.870;2023-06-04T07:33:50;20.70;49.30
70706;DHT22;59320;52.316;10.870;2023-06-04T07:36:17;20.80;49.30
70706;DHT22;59320;52.316;10.870;2023-06-04T07:38:46;20.90;49.20
70706;DHT22;59320;52.316;10.870;2023-06-04T07:41:14;21.00;48.50
70706;DHT22;59320;52.316;10.870;2023-06-04T07:43:43;20.90;47.30
70706;DHT22;59320;52.316;10.870;2023-06-04T07:46:10;20.80;45.30
70706;DHT22;59320;52.316;10.870;2023-06-04T07:48:37;20.80;45.90
70706;DHT22;59320;52.316;10.870;2023-06-04T07:51:04;21.00;45.90
70706;DHT22;59320;52.316;10.870;2023-06-04T07:53:31;21.20;45.70
70706;DHT22;59320;52.316;10.870;2023-06-04T07:55:58;21.40;44.80
70706;DHT22;59320;52.316;10.870;2023-06-04T07:58:25;21.50;44.80
70706;DHT22;59320;52.316;10.870;2023-06-04T08:00:53;21.70;44.50
70706;DHT22;59320;52.316;10.870;2023-06-04T08:03:21;21.60;44.70
70706;DHT22;59320;52.316;10.870;2023-06-04T08:05:48;21.80;43.90
70706;DHT22;59320;52.316;10.870;2023-06-04T08:08:15;22.20;43.90
70706;DHT22;59320;52.316;10.870;2023-06-04T08:10:44;22.30;42.70
70706;DHT22;59320;52.316;10.870;2023-06-04T08:13:11;22.50;41.60
70706;DHT22;59320;52.316;10.870;2023-06-04T08:15:38;22.70;39.70
70706;DHT22;59320;52.316;10.870;2023-06-04T08:18:28;22.60;41.10
70706;DHT22;59320;52.316;10.870;2023-06-04T08:21:09;22.40;39.70
70706;DHT22;59320;52.316;10.870;2023-06-04T08:23:48;22.40;40.20
70706;DHT22;59320;52.316;10.870;2023-06-04T08:26:35;22.30;40.20
70706;DHT22;59320;52.316;10.870;2023-06-04T08:29:09;22.50;40.50
70706;DHT22;59320;52.316;10.870;2023-06-04T08:31:37;22.60;40.60
70706;DHT22;59320;52.316;10.870;2023-06-04T08:34:19;22.80;40.10
70706;DHT22;59320;52.316;10.870;2023-06-04T08:36:46;23.10;38.60
70706;DHT22;59320;52.316;10.870;2023-06-04T08:39:13;23.10;38.40
70706;DHT22;59320;52.316;10.870;2023-06-04T08:41:43;23.00;37.60
70706;DHT22;59320;52.316;10.870;2023-06-04T08:44:11;23.00;37.10
70706;DHT22;59320;52.316;10.870;2023-06-04T08:46:39;23.20;36.70
70706;DHT22;59320;52.316;10.870;2023-06-04T08:49:08;23.50;36.00
70706;DHT22;59320;52.316;10.870;2023-06-04T08:51:37;23.80;35.00
70706;DHT22;59320;52.316;10.870;2023-06-04T08:54:06;23.70;34.40
70706;DHT22;59320;52.316;10.870;2023-06-04T08:56:33;23.70;35.20
70706;DHT22;59320;52.316;10.870;2023-06-04T08:59:03;23.20;34.10
70706;DHT22;59320;52.316;10.870;2023-06-04T09:01:31;23.00;35.40
70706;DHT22;59320;52.316;10.870;2023-06-04T09:04:01;22.90;35.90
70706;DHT22;59320;52.316;10.870;2023-06-04T09:06:29;23.10;36.10
70706;DHT22;59320;52.316;10.870;2023-06-04T09:08:58;23.40;36.40
70706;DHT22;59320;52.316;10.870;2023-06-04T09:11:27;23.50;36.10
70706;DHT22;59320;52.316;10.870;2023-06-04T09:14:02;23.50;35.40
70706;DHT22;59320;52.316;10.870;2023-06-04T09:16:30;23.20;35.90
70706;DHT22;59320;52.316;10.870;2023-06-04T09:19:02;23.20;36.40
70706;DHT22;59320;52.316;10.870;2023-06-04T09:21:29;23.10;35.90
70706;DHT22;59320;52.316;10.870;2023-06-04T09:23:58;23.10;35.60
70706;DHT22;59320;52.316;10.870;2023-06-04T09:26:25;23.00;36.30
70706;DHT22;59320;52.316;10.870;2023-06-04T09:28:52;23.10;37.00
70706;DHT22;59320;52.316;10.870;2023-06-04T09:31:23;23.20;36.30
70706;DHT22;59320;52.316;10.870;2023-06-04T09:33:52;23.10;36.60
70706;DHT22;59320;52.316;10.870;2023-06-04T09:36:19;23.20;35.60
70706;DHT22;59320;52.316;10.870;2023-06-04T09:38:47;23.10;35.30
70706;DHT22;59320;52.316;10.870;2023-06-04T09:41:18;23.10;34.30
70706;DHT22;59320;52.316;10.870;2023-06-04T09:43:47;23.00;34.00
70706;DHT22;59320;52.316;10.870;2023-06-04T09:46:16;22.90;33.70
70706;DHT22;59320;52.316;10.870;2023-06-04T09:48:44;22.60;35.10
70706;DHT22;59320;52.316;10.870;2023-06-04T09:51:14;22.70;34.80
70706;DHT22;59320;52.316;10.870;2023-06-04T09:53:53;22.70;34.80
70706;DHT22;59320;52.316;10.870;2023-06-04T09:56:22;22.90;34.60
70706;DHT22;59320;52.316;10.870;2023-06-04T09:58:54;22.90;34.50
70706;DHT22;59320;52.316;10.870;2023-06-04T10:01:23;22.90;34.20
70706;DHT22;59320;52.316;10.870;2023-06-04T10:03:51;23.00;34.40
70706;DHT22;59320;52.316;10.870;2023-06-04T10:06:19;23.00;34.10
70706;DHT22;59320;52.316;10.870;2023-06-04T10:08:49;22.90;33.70
70706;DHT22;59320;52.316;10.870;2023-06-04T10:11:23;22.80;35.10
70706;DHT22;59320;52.316;10.870;2023-06-04T10:13:55;22.80;35.00
70706;DHT22;59320;52.316;10.870;2023-06-04T10:16:25;22.90;34.30
70706;DHT22;59320;52.316;10.870;2023-06-04T10:18:52;23.20;33.50
70706;DHT22;59320;52.316;10.870;2023-06-04T10:21:21;23.20;33.10
70706;DHT22;59320;52.316;10.870;2023-06-04T10:23:50;23.10;33.00
70706;DHT22;59320;52.316;10.870;2023-06-04T10:26:17;23.00;33.10
70706;DHT22;59320;52.316;10.870;2023-06-04T10:28:46;22.90;33.80
70706;DHT22;59320;52.316;10.870;2023-06-04T10:31:13;22.90;33.40
70706;DHT22;59320;52.316;10.870;2023-06-04T10:33:42;22.90;34.30
70706;DHT22;59320;52.316;10.870;2023-06-04T10:36:16;22.90;33.10
70706;DHT22;59320;52.316;10.870;2023-06-04T10:38:47;22.80;32.60
70706;DHT22;59320;52.316;10.870;2023-06-04T10:41:15;22.70;33.50
70706;DHT22;59320;52.316;10.870;2023-06-04T10:43:48;22.70;33.40
70706;DHT22;59320;52.316;10.870;2023-06-04T10:46:17;22.80;33.60
70706;DHT22;59320;52.316;10.870;2023-06-04T10:48:49;22.80;33.10
70706;DHT22;59320;52.316;10.870;2023-06-04T10:51:28;23.00;33.00
70706;DHT22;59320;52.316;10.870;2023-06-04T10:53:56;23.10;33.30
70706;DHT22;59320;52.316;10.870;2023-06-04T10:56:28;23.10;33.40
70706;DHT22;59320;52.316;10.870;2023-06-04T10:58:56;23.20;33.50
70706;DHT22;59320;52.316;10.870;2023-06-04T11:01:25;23.30;32.60
70706;DHT22;59320;52.316;10.870;2023-06-04T11:03:53;23.20;32.20
70706;DHT22;59320;52.316;10.870;2023-06-04T11:06:21;23.20;32.10
70706;DHT22;59320;52.316;10.870;2023-06-04T11:08:49;23.50;32.70
70706;DHT22;59320;52.316;10.870;2023-06-04T11:11:17;24.00;31.50
70706;DHT22;59320;52.316;10.870;2023-06-04T11:13:44;24.20;30.30
70706;DHT22;59320;52.316;10.870;2023-06-04T11:16:19;24.30;30.10
70706;DHT22;59320;52.316;10.870;2023-06-04T11:18:54;24.40;30.90
70706;DHT22;59320;52.316;10.870;2023-06-04T11:21:22;24.80;30.50
70706;DHT22;59320;52.316;10.870;2023-06-04T11:23:49;25.10;30.40
70706;DHT22;59320;52.316;10.870;2023-06-04T11:26:33;25.60;30.60
70706;DHT22;59320;52.316;10.870;2023-06-04T11:29:01;25.80;29.70
70706;DHT22;59320;52.316;10.870;2023-06-04T11:31:40;25.70;29.90
70706;DHT22;59320;52.316;10.870;2023-06-04T11:34:09;25.60;30.20
70706;DHT22;59320;52.316;10.870;2023-06-04T11:36:38;26.00;29.80
70706;DHT22;59320;52.316;10.870;2023-06-04T11:39:05;26.10;28.30
70706;DHT22;59320;52.316;10.870;2023-06-04T11:41:34;25.50;28.00
70706;DHT22;59320;52.316;10.870;2023-06-04T11:44:03;25.20;29.10
70706;DHT22;59320;52.316;10.870;2023-06-04T11:46:32;25.70;29.10
70706;DHT22;59320;52.316;10.870;2023-06-04T11:49:02;26.10;29.00
70706;DHT22;59320;52.316;10.870;2023-06-04T11:51:30;26.30;28.40
70706;DHT22;59320;52.316;10.870;2023-06-04T11:53:57;26.40;28.60
70706;DHT22;59320;52.316;10.870;2023-06-04T11:56:25;27.00;28.90
70706;DHT22;59320;52.316;10.870;2023-06-04T11:58:54;27.50;28.00
70706;DHT22;59320;52.316;10.870;2023-06-04T12:01:22;27.40;27.70
70706;DHT22;59320;52.316;10.870;2023-06-04T12:03:51;27.10;27.60
70706;DHT22;59320;52.316;10.870;2023-06-04T12:06:19;26.80;28.20
70706;DHT22;59320;52.316;10.870;2023-06-04T12:08:47;26.60;28.50
70706;DHT22;59320;52.316;10.870;2023-06-04T12:11:28;27.00;28.60
70706;DHT22;59320;52.316;10.870;2023-06-04T12:13:58;27.70;28.10
70706;DHT22;59320;52.316;10.870;2023-06-04T12:16:25;28.00;27.70
70706;DHT22;59320;52.316;10.870;2023-06-04T12:19:08;28.20;27.30
70706;DHT22;59320;52.316;10.870;2023-06-04T12:21:36;28.20;27.20
70706;DHT22;59320;52.316;10.870;2023-06-04T12:24:07;28.30;27.20
70706;DHT22;59320;52.316;10.870;2023-06-04T12:26:41;28.20;27.40
70706;DHT22;59320;52.316;10.870;2023-06-04T12:29:11;28.30;26.50
70706;DHT22;59320;52.316;10.870;2023-06-04T12:31:39;28.20;27.00
70706;DHT22;59320;52.316;10.870;2023-06-04T12:34:10;28.30;26.40
70706;DHT22;59320;52.316;10.870;2023-06-04T12:36:39;28.00;26.00
70706;DHT22;59320;52.316;10.870;2023-06-04T12:39:06;27.60;26.20
70706;DHT22;59320;52.316;10.870;2023-06-04T12:41:34;27.60;26.50
70706;DHT22;59320;52.316;10.870;2023-06-04T12:44:01;27.70;26.50
70706;DHT22;59320;52.316;10.870;2023-06-04T12:46:29;27.60;27.00
70706;DHT22;59320;52.316;10.870;2023-06-04T12:48:56;27.70;27.00
70706;DHT22;59320;52.316;10.870;2023-06-04T12:51:24;27.90;26.50
70706;DHT22;59320;52.316;10.870;2023-06-04T12:53:51;27.90;26.50
70706;DHT22;59320;52.316;10.870;2023-06-04T12:56:19;28.00;27.10
70706;DHT22;59320;52.316;10.870;2023-06-04T12:58:47;28.10;26.80
70706;DHT22;59320;52.316;10.870;2023-06-04T13:01:15;28.20;26.20
70706;DHT22;59320;52.316;10.870;2023-06-04T13:03:42;28.60;26.20
70706;DHT22;59320;52.316;10.870;2023-06-04T13:06:09;28.60;26.20
70706;DHT22;59320;52.316;10.870;2023-06-04T13:08:37;28.50;25.90
70706;DHT22;59320;52.316;10.870;2023-06-04T13:11:05;28.40;25.50
70706;DHT22;59320;52.316;10.870;2023-06-04T13:13:32;28.10;26.20
70706;DHT22;59320;52.316;10.870;2023-06-04T13:15:59;28.30;26.20
70706;DHT22;59320;52.316;10.870;2023-06-04T13:18:26;28.30;26.40
70706;DHT22;59320;52.316;10.870;2023-06-04T13:20:53;28.20;26.40
70706;DHT22;59320;52.316;10.870;2023-06-04T13:23:21;28.20;26.20
70706;DHT22;59320;52.316;10.870;2023-06-04T13:25:49;28.00;25.60
70706;DHT22;59320;52.316;10.870;2023-06-04T13:28:16;27.90;25.90
70706;DHT22;59320;52.316;10.870;2023-06-04T13:30:44;27.70;25.60
70706;DHT22;59320;52.316;10.870;2023-06-04T13:33:11;27.20;25.50
70706;DHT22;59320;52.316;10.870;2023-06-04T13:35:38;27.30;26.20
70706;DHT22;59320;52.316;10.870;2023-06-04T13:38:06;27.70;26.30
70706;DHT22;59320;52.316;10.870;2023-06-04T13:40:34;28.00;25.90
70706;DHT22;59320;52.316;10.870;2023-06-04T13:43:02;27.80;25.10
70706;DHT22;59320;52.316;10.870;2023-06-04T13:45:29;27.40;25.50
70706;DHT22;59320;52.316;10.870;2023-06-04T13:47:57;26.90;25.80
70706;DHT22;59320;52.316;10.870;2023-06-04T13:50:28;26.80;26.80
70706;DHT22;59320;52.316;10.870;2023-06-04T13:52:55;27.00;26.50
70706;DHT22;59320;52.316;10.870;2023-06-04T13:55:22;27.10;26.20
70706;DHT22;59320;52.316;10.870;2023-06-04T13:57:49;27.30;26.10
70706;DHT22;59320;52.316;10.870;2023-06-04T14:00:19;27.40;26.30
70706;DHT22;59320;52.316;10.870;2023-06-04T14:02:47;27.50;26.30
70706;DHT22;59320;52.316;10.870;2023-06-04T14:05:15;27.90;26.70
70706;DHT22;59320;52.316;10.870;2023-06-04T14:07:43;28.30;26.40
70706;DHT22;59320;52.316;10.870;2023-06-04T14:10:10;28.40;25.90
70706;DHT22;59320;52.316;10.870;2023-06-04T14:12:38;28.30;25.80
70706;DHT22;59320;52.316;10.870;2023-06-04T14:15:12;27.90;25.40
70706;DHT22;59320;52.316;10.870;2023-06-04T14:17:40;27.60;25.70
70706;DHT22;59320;52.316;10.870;2023-06-04T14:20:08;27.20;26.70
70706;DHT22;59320;52.316;10.870;2023-06-04T14:22:37;27.30;26.80
70706;DHT22;59320;52.316;10.870;2023-06-04T14:25:05;27.60;26.60
70706;DHT22;59320;52.316;10.870;2023-06-04T14:27:34;27.50;26.70
70706;DHT22;59320;52.316;10.870;2023-06-04T14:30:04;27.50;26.50
70706;DHT22;59320;52.316;10.870;2023-06-04T14:32:32;27.40;27.00
70706;DHT22;59320;52.316;10.870;2023-06-04T14:35:01;27.80;26.80
70706;DHT22;59320;52.316;10.870;2023-06-04T14:37:28;28.10;26.40
70706;DHT22;59320;52.316;10.870;2023-06-04T14:39:55;28.00;25.80
70706;DHT22;59320;52.316;10.870;2023-06-04T14:42:22;28.10;26.00
70706;DHT22;59320;52.316;10.870;2023-06-04T14:44:49;28.40;26.60
70706;DHT22;59320;52.316;10.870;2023-06-04T14:47:16;28.70;25.90
70706;DHT22;59320;52.316;10.870;2023-06-04T14:49:43;28.90;25.80
70706;DHT22;59320;52.316;10.870;2023-06-04T14:52:12;29.10;25.40
70706;DHT22;59320;52.316;10.870;2023-06-04T14:54:39;29.40;25.40
70706;DHT22;59320;52.316;10.870;2023-06-04T14:57:06;29.30;25.10
70706;DHT22;59320;52.316;10.870;2023-06-04T14:59:35;29.10;25.20
70706;DHT22;59320;52.316;10.870;2023-06-04T15:02:04;29.00;25.20
70706;DHT22;59320;52.316;10.870;2023-06-04T15:04:31;28.70;26.10
70706;DHT22;59320;52.316;10.870;2023-06-04T15:06:58;28.80;25.40
70706;DHT22;59320;52.316;10.870;2023-06-04T15:09:29;28.90;25.50
70706;DHT22;59320;52.316;10.870;2023-06-04T15:11:56;28.60;25.40
70706;DHT22;59320;52.316;10.870;2023-06-04T15:14:23;28.10;26.10
70706;DHT22;59320;52.316;10.870;2023-06-04T15:16:50;27.80;26.20
70706;DHT22;59320;52.316;10.870;2023-06-04T15:19:17;27.90;26.40
70706;DHT22;59320;52.316;10.870;2023-06-04T15:21:44;28.30;26.50
70706;DHT22;59320;52.316;10.870;2023-06-04T15:24:11;28.30;26.00